createdAt,value
2019-03-29T00:00:39.497Z,100109.64
2019-03-29T00:02:47.268Z,100100.78
2019-03-29T00:04:55.197Z,100106.17
2019-03-29T00:07:03.968Z,100107.00
2019-03-29T00:09:12.197Z,100110.31
2019-03-29T00:11:20.040Z,100098.88
2019-03-29T00:13:27.735Z,100100.06
2019-03-29T00:15:35.663Z,100097.46
2019-03-29T00:17:44.144Z,100097.52
2019-03-29T00:19:51.789Z,100098.14
2019-03-29T00:21:59.492Z,100095.89
2019-03-29T00:24:07.435Z,100091.69
2019-03-29T00:26:15.157Z,100090.44
2019-03-29T00:28:22.955Z,100082.06
2019-03-29T00:30:30.655Z,100085.87
2019-03-29T00:32:39.621Z,100089.25
2019-03-29T00:34:47.925Z,100090.03
2019-03-29T00:36:56.736Z,100092.42
2019-03-29T00:39:07.139Z,100087.00
2019-03-29T00:41:15.021Z,100085.42
2019-03-29T00:43:22.711Z,100085.08
2019-03-29T00:45:30.550Z,100085.11
2019-03-29T00:47:38.461Z,100076.74
2019-03-29T00:49:46.321Z,100075.91
2019-03-29T00:51:54.019Z,100075.91
2019-03-29T00:54:02.080Z,100077.16
2019-03-29T00:56:10.136Z,100083.45
2019-03-29T00:58:18.069Z,100087.63
2019-03-29T01:00:26.049Z,100093.91
2019-03-29T01:02:33.772Z,100088.42
2019-03-29T01:04:41.513Z,100093.45
2019-03-29T01:06:49.276Z,100091.33
2019-03-29T01:08:57.009Z,100083.34
2019-03-29T01:11:04.770Z,100078.69
2019-03-29T01:13:12.465Z,100084.13
2019-03-29T01:15:20.216Z,100087.50
2019-03-29T01:17:27.991Z,100086.65
2019-03-29T01:19:35.979Z,100084.52
2019-03-29T01:21:43.802Z,100083.27
2019-03-29T01:23:51.501Z,100079.06
2019-03-29T01:25:59.088Z,100079.45
2019-03-29T01:28:06.881Z,100084.46
2019-03-29T01:30:14.814Z,100078.95
2019-03-29T01:32:22.507Z,100075.56
2019-03-29T01:34:30.670Z,100076.82
2019-03-29T01:36:38.426Z,100077.63
2019-03-29T01:38:46.168Z,100078.47
2019-03-29T01:40:55.057Z,100074.21
2019-03-29T01:43:02.827Z,100073.30
2019-03-29T01:45:11.299Z,100072.88
2019-03-29T01:47:19.041Z,100072.01
2019-03-29T01:49:26.870Z,100076.58
2019-03-29T01:51:34.570Z,100080.73
2019-03-29T01:53:42.391Z,100089.08
2019-03-29T01:55:50.159Z,100085.69
2019-03-29T01:57:58.926Z,100089.83
2019-03-29T02:00:09.066Z,100095.23
2019-03-29T02:02:17.059Z,100091.84
2019-03-29T02:04:24.653Z,100100.99
2019-03-29T02:06:32.715Z,100101.37
2019-03-29T02:08:40.408Z,100100.58
2019-03-29T02:10:49.428Z,100099.25
2019-03-29T02:12:57.276Z,100100.08
2019-03-29T02:15:08.118Z,100097.95
2019-03-29T02:17:15.711Z,100093.75
2019-03-29T02:19:23.432Z,100100.86
2019-03-29T02:21:31.501Z,100099.58
2019-03-29T02:23:39.267Z,100099.58
2019-03-29T02:25:47.028Z,100095.63
2019-03-29T02:27:54.825Z,100102.44
2019-03-29T02:30:04.250Z,100102.45
2019-03-29T02:32:12.645Z,100113.80
2019-03-29T02:34:20.423Z,100105.48
2019-03-29T02:36:28.114Z,100104.26
2019-03-29T02:38:47.502Z,100102.22
2019-03-29T02:40:45.592Z,100106.05
2019-03-29T02:42:53.799Z,100111.10
2019-03-29T02:45:03.396Z,100106.52
2019-03-29T02:47:10.883Z,100106.15
2019-03-29T02:49:18.579Z,100104.06
2019-03-29T02:51:26.354Z,100109.42
2019-03-29T02:53:34.151Z,100107.65
2019-03-29T02:55:41.819Z,100106.80
2019-03-29T02:57:49.609Z,100103.45
2019-03-29T02:59:57.315Z,100100.80
2019-03-29T03:02:05.496Z,100103.19
2019-03-29T03:04:13.233Z,100097.41
2019-03-29T03:06:21.099Z,100100.69
2019-03-29T03:08:32.702Z,100095.94
2019-03-29T03:10:38.290Z,100084.91
2019-03-29T03:12:46.138Z,100095.65
2019-03-29T03:14:54.014Z,100096.89
2019-03-29T03:17:01.776Z,100100.47
2019-03-29T03:19:09.602Z,100101.50
2019-03-29T03:21:17.370Z,100102.84
2019-03-29T03:23:25.161Z,100104.71
2019-03-29T03:25:33.008Z,100110.53
2019-03-29T03:27:40.989Z,100104.39
2019-03-29T03:29:48.922Z,100114.19
2019-03-29T03:31:56.622Z,100114.25
2019-03-29T03:34:04.329Z,100113.47
2019-03-29T03:36:12.277Z,100113.07
2019-03-29T03:38:20.129Z,100123.98
2019-03-29T03:40:27.786Z,100120.21
2019-03-29T03:42:35.728Z,100123.17
2019-03-29T03:44:43.552Z,100126.00
2019-03-29T03:46:52.506Z,100124.22
2019-03-29T03:49:00.292Z,100125.70
2019-03-29T03:51:08.264Z,100123.97
2019-03-29T03:53:16.078Z,100130.52
2019-03-29T03:55:23.903Z,100126.52
2019-03-29T03:57:33.296Z,100125.89
2019-03-29T03:59:41.969Z,100130.38
2019-03-29T04:01:49.708Z,100124.88
2019-03-29T04:03:57.351Z,100134.86
2019-03-29T04:06:05.282Z,100126.80
2019-03-29T04:08:13.013Z,100114.69
2019-03-29T04:10:20.707Z,100116.92
2019-03-29T04:12:28.572Z,100122.46
2019-03-29T04:14:36.528Z,100118.44
2019-03-29T04:16:44.223Z,100120.22
2019-03-29T04:18:51.924Z,100124.56
2019-03-29T04:20:59.726Z,100121.77
2019-03-29T04:23:07.759Z,100114.73
2019-03-29T04:25:15.445Z,100112.27
2019-03-29T04:27:23.075Z,100112.28
2019-03-29T04:29:30.912Z,100114.32
2019-03-29T04:31:38.578Z,100108.02
2019-03-29T04:33:46.299Z,100109.69
2019-03-29T04:35:53.955Z,100100.05
2019-03-29T04:38:02.626Z,100108.01
2019-03-29T04:40:10.698Z,100097.94
2019-03-29T04:42:18.471Z,100100.47
2019-03-29T04:44:26.177Z,100100.47
2019-03-29T04:46:34.681Z,100100.48
2019-03-29T04:48:42.439Z,100094.66
2019-03-29T04:50:50.128Z,100094.74
2019-03-29T04:52:57.848Z,100093.38
2019-03-29T04:55:07.485Z,100088.58
2019-03-29T04:57:15.177Z,100092.42
2019-03-29T04:59:22.947Z,100094.56
2019-03-29T05:01:30.856Z,100106.78
2019-03-29T05:03:38.655Z,100111.36
2019-03-29T05:05:46.384Z,100121.17
2019-03-29T05:07:54.151Z,100128.84
2019-03-29T05:10:01.985Z,100128.92
2019-03-29T05:12:09.915Z,100124.85
2019-03-29T05:14:17.800Z,100120.74
2019-03-29T05:16:26.700Z,100116.77
2019-03-29T05:18:34.522Z,100118.06
2019-03-29T05:20:42.124Z,100119.84
2019-03-29T05:22:49.894Z,100120.33
2019-03-29T05:24:57.741Z,100116.27
2019-03-29T05:27:05.583Z,100124.87
2019-03-29T05:29:13.370Z,100126.63
2019-03-29T05:31:21.116Z,100120.95
2019-03-29T05:33:28.945Z,100122.77
2019-03-29T05:35:36.958Z,100120.34
2019-03-29T05:37:46.028Z,100128.86
2019-03-29T05:39:53.812Z,100137.31
2019-03-29T05:42:02.674Z,100126.44
2019-03-29T05:44:10.400Z,100124.80
2019-03-29T05:46:18.173Z,100126.53
2019-03-29T05:48:26.706Z,100116.47
2019-03-29T05:50:36.795Z,100121.14
2019-03-29T05:52:43.811Z,100114.00
2019-03-29T05:54:51.554Z,100114.47
2019-03-29T05:56:59.335Z,100122.91
2019-03-29T05:59:07.171Z,100121.14
2019-03-29T06:01:14.940Z,100111.90
2019-03-29T06:03:22.804Z,100105.63
2019-03-29T06:05:30.511Z,100110.74
2019-03-29T06:07:38.285Z,100109.52
2019-03-29T06:09:46.073Z,100118.27
2019-03-29T06:11:54.961Z,100112.69
2019-03-29T06:14:02.834Z,100111.77
2019-03-29T06:16:10.630Z,100118.95
2019-03-29T06:18:18.321Z,100115.63
2019-03-29T06:20:25.982Z,100112.28
2019-03-29T06:22:33.737Z,100110.23
2019-03-29T06:24:41.533Z,100108.09
2019-03-29T06:26:49.343Z,100111.09
2019-03-29T06:28:57.735Z,100106.03
2019-03-29T06:31:05.670Z,100115.80
2019-03-29T06:33:13.379Z,100113.72
2019-03-29T06:35:21.146Z,100118.41
2019-03-29T06:37:29.948Z,100113.38
2019-03-29T06:39:38.068Z,100111.73
2019-03-29T06:41:45.853Z,100108.36
2019-03-29T06:43:53.694Z,100110.49
2019-03-29T06:46:01.453Z,100101.63
2019-03-29T06:48:09.179Z,100099.50
2019-03-29T06:50:18.066Z,100098.23
2019-03-29T06:52:25.767Z,100095.70
2019-03-29T06:54:33.650Z,100083.06
2019-03-29T06:56:41.591Z,100082.23
2019-03-29T06:58:49.293Z,100077.19
2019-03-29T07:00:56.929Z,100085.63
2019-03-29T07:03:04.903Z,100083.92
2019-03-29T07:05:12.727Z,100088.98
2019-03-29T07:07:20.491Z,100093.19
2019-03-29T07:09:28.278Z,100091.48
2019-03-29T07:11:39.424Z,100092.31
2019-03-29T07:13:56.680Z,100099.06
2019-03-29T07:15:54.889Z,100092.27
2019-03-29T07:18:02.579Z,100091.02
2019-03-29T07:20:10.811Z,100093.09
2019-03-29T07:22:18.399Z,100101.06
2019-03-29T07:24:26.194Z,100099.39
2019-03-29T07:26:33.991Z,100106.52
2019-03-29T07:28:41.863Z,100110.34
2019-03-29T07:30:49.675Z,100101.87
2019-03-29T07:52:07.212Z,100138.50
2019-03-29T07:54:15.039Z,100132.77
2019-03-29T07:56:22.726Z,100134.84
2019-03-29T07:58:32.147Z,100136.89
2019-03-29T08:00:39.835Z,100130.88
2019-03-29T08:02:47.525Z,100123.54
2019-03-29T08:04:55.231Z,100115.85
2019-03-29T08:07:02.915Z,100112.98
2019-03-29T08:09:21.712Z,100115.20
2019-03-29T08:11:26.432Z,100112.65
2019-03-29T08:13:30.496Z,100118.09
2019-03-29T08:15:38.199Z,100105.89
2019-03-29T08:17:46.375Z,100104.23
2019-03-29T08:20:13.340Z,100100.22
2019-03-29T08:22:03.424Z,100108.31
2019-03-29T08:24:11.203Z,100105.34
2019-03-29T08:26:18.953Z,100104.09
2019-03-29T08:28:26.707Z,100103.45
2019-03-29T08:30:34.414Z,100094.98
2019-03-29T08:32:42.235Z,100099.30
2019-03-29T08:34:50.058Z,100100.70
2019-03-29T08:36:57.768Z,100101.97
2019-03-29T08:39:10.185Z,100110.35
2019-03-29T08:41:17.221Z,100112.88
2019-03-29T08:43:24.921Z,100110.30
2019-03-29T08:45:32.675Z,100120.44
2019-03-29T08:47:40.262Z,100129.78
2019-03-29T08:49:47.970Z,100127.95
2019-03-29T08:51:55.719Z,100127.50
2019-03-29T08:54:04.361Z,100135.45
2019-03-29T08:56:13.423Z,100155.87
2019-03-29T08:58:21.007Z,100139.13
2019-03-29T09:00:32.980Z,100138.41
2019-03-29T09:02:40.589Z,100140.67
2019-03-29T09:04:48.399Z,100139.83
2019-03-29T09:06:56.074Z,100131.36
2019-03-29T09:09:04.500Z,100112.98
2019-03-29T09:11:12.177Z,100105.93
2019-03-29T09:13:20.130Z,100107.12
2019-03-29T09:15:28.006Z,100097.35
2019-03-29T09:17:35.678Z,100098.12
2019-03-29T09:19:44.434Z,100102.70
2019-03-29T09:21:52.199Z,100086.42
2019-03-29T09:24:00.114Z,100081.92
2019-03-29T09:26:07.863Z,100076.50
2019-03-29T09:28:15.572Z,100064.72
2019-03-29T09:30:23.249Z,100045.11
2019-03-29T09:32:30.930Z,100024.20
2019-03-29T09:34:41.147Z,100032.06
2019-03-29T09:36:48.776Z,100025.42
2019-03-29T09:38:56.458Z,100007.66
2019-03-29T09:41:04.164Z,100019.13
2019-03-29T09:43:11.984Z,99996.95
2019-03-29T09:45:19.727Z,99999.80
2019-03-29T09:47:27.601Z,100018.81
2019-03-29T09:49:35.314Z,100029.94
2019-03-29T09:51:42.989Z,100041.89
2019-03-29T09:53:50.612Z,100043.09
2019-03-29T09:55:58.340Z,100047.00
2019-03-29T09:58:06.076Z,100048.34
2019-03-29T10:00:21.058Z,100048.31
2019-03-29T10:02:23.485Z,100048.80
2019-03-29T10:04:31.163Z,100042.23
2019-03-29T10:06:38.994Z,100045.51
2019-03-29T10:08:46.821Z,100035.83
2019-03-29T10:10:55.685Z,100057.89
2019-03-29T10:13:03.481Z,100049.77
2019-03-29T10:15:11.311Z,100043.19
2019-03-29T10:17:19.005Z,100044.85
2019-03-29T10:19:26.751Z,100042.72
2019-03-29T10:21:34.435Z,100037.69
2019-03-29T10:23:42.134Z,100026.66
2019-03-29T10:25:50.004Z,100020.69
2019-03-29T10:27:57.823Z,100021.42
2019-03-29T10:30:09.074Z,100018.23
2019-03-29T10:32:16.791Z,100017.00
2019-03-29T10:34:24.513Z,100009.97
2019-03-29T10:36:32.306Z,100009.59
2019-03-29T10:38:40.217Z,100016.08
2019-03-29T10:40:47.908Z,100022.16
2019-03-29T10:42:58.064Z,100012.70
2019-03-29T10:45:05.984Z,99996.68
2019-03-29T10:47:13.574Z,100005.23
2019-03-29T10:49:21.270Z,100017.26
2019-03-29T10:51:29.003Z,100000.91
2019-03-29T10:53:36.691Z,99999.52
2019-03-29T10:55:44.389Z,99995.44
2019-03-29T10:57:52.971Z,99996.72
2019-03-29T11:00:00.652Z,99997.28
2019-03-29T11:02:09.770Z,99997.12
2019-03-29T11:04:17.585Z,99996.23
2019-03-29T11:06:25.274Z,100001.07
2019-03-29T11:08:32.858Z,99999.30
2019-03-29T11:10:41.609Z,99989.59
2019-03-29T11:12:49.195Z,99987.63
2019-03-29T11:14:56.883Z,99982.98
2019-03-29T11:17:04.645Z,99973.97
2019-03-29T11:19:12.436Z,99979.16
2019-03-29T11:21:20.180Z,99972.31
2019-03-29T11:23:27.898Z,99974.97
2019-03-29T11:25:35.583Z,99971.59
2019-03-29T11:27:43.265Z,99970.27
2019-03-29T11:29:50.970Z,99963.08
2019-03-29T11:31:58.722Z,99961.20
2019-03-29T11:34:07.275Z,99949.55
2019-03-29T11:36:15.241Z,99958.00
2019-03-29T11:38:23.050Z,99957.92
2019-03-29T11:40:30.634Z,99961.28
2019-03-29T11:42:38.359Z,99957.55
2019-03-29T11:44:46.040Z,99961.55
2019-03-29T11:46:53.874Z,99953.33
2019-03-29T11:49:01.586Z,99967.52
2019-03-29T11:51:19.217Z,99969.70
2019-03-29T11:53:20.012Z,99963.04
2019-03-29T11:55:27.955Z,99964.05
2019-03-29T11:57:35.804Z,99970.14
2019-03-29T11:59:44.350Z,99967.14
2019-03-29T12:01:52.127Z,99978.67
2019-03-29T12:03:59.811Z,99968.84
2019-03-29T12:06:07.725Z,99965.39
2019-03-29T12:08:15.436Z,99968.08
2019-03-29T12:10:23.133Z,99969.47
2019-03-29T12:12:30.891Z,99956.70
2019-03-29T12:14:38.620Z,99956.65
2019-03-29T12:16:46.398Z,99967.47
2019-03-29T12:18:54.078Z,99958.05
2019-03-29T12:21:03.007Z,99951.42
2019-03-29T12:23:10.782Z,99949.70
2019-03-29T12:25:18.433Z,99938.52
2019-03-29T12:27:26.213Z,99949.88
2019-03-29T12:29:33.992Z,99948.05
2019-03-29T12:31:41.678Z,99953.23
2019-03-29T12:33:49.393Z,99945.61
2019-03-29T12:35:57.079Z,99942.88
2019-03-29T12:38:05.183Z,99946.63
2019-03-29T12:40:13.266Z,99939.89
2019-03-29T12:42:21.040Z,99937.34
2019-03-29T12:44:28.729Z,99938.41
2019-03-29T12:46:36.584Z,99942.54
2019-03-29T12:48:44.340Z,99930.66
2019-03-29T12:50:52.088Z,99928.16
2019-03-29T12:52:59.826Z,99926.30
2019-03-29T12:55:07.919Z,99926.30
2019-03-29T12:57:15.607Z,99925.97
2019-03-29T12:59:23.385Z,99919.67
2019-03-29T13:01:39.345Z,99908.17
2019-03-29T13:03:41.348Z,99915.81
2019-03-29T13:05:49.067Z,99918.56
2019-03-29T13:07:56.750Z,99919.48
2019-03-29T13:10:09.603Z,99919.84
2019-03-29T13:12:17.390Z,99909.66
2019-03-29T13:14:25.091Z,99903.72
2019-03-29T13:16:32.767Z,99904.88
2019-03-29T13:18:40.485Z,99903.20
2019-03-29T13:20:48.244Z,99897.00
2019-03-29T13:22:55.901Z,99901.52
2019-03-29T13:25:07.207Z,99900.91
2019-03-29T13:27:13.730Z,99902.41
2019-03-29T13:29:21.579Z,99891.30
2019-03-29T13:31:29.351Z,99896.34
2019-03-29T13:33:38.166Z,99893.97
2019-03-29T13:35:46.123Z,99894.25
2019-03-29T13:37:53.835Z,99904.88
2019-03-29T13:40:01.515Z,99898.78
2019-03-29T13:42:10.654Z,99897.55
2019-03-29T13:44:24.068Z,99885.75
2019-03-29T13:46:27.930Z,99878.69
2019-03-29T13:48:35.655Z,99882.25
2019-03-29T13:50:43.376Z,99873.66
2019-03-29T13:52:51.117Z,99879.17
2019-03-29T13:54:58.859Z,99872.06
2019-03-29T13:57:06.566Z,99877.03
2019-03-29T13:59:14.317Z,99869.52
2019-03-29T14:01:21.997Z,99861.07
2019-03-29T14:03:30.625Z,99858.25
2019-03-29T14:05:38.589Z,99853.23
2019-03-29T14:07:46.366Z,99860.33
2019-03-29T14:09:54.076Z,99856.92
2019-03-29T14:12:01.899Z,99854.99
2019-03-29T14:14:09.655Z,99859.16
2019-03-29T14:16:17.384Z,99860.50
2019-03-29T14:18:25.367Z,99851.11
2019-03-29T14:20:36.185Z,99844.76
2019-03-29T14:22:43.802Z,99838.00
2019-03-29T14:24:54.072Z,99831.45
2019-03-29T14:27:00.915Z,99831.64
2019-03-29T14:29:08.699Z,99837.45
2019-03-29T14:31:18.141Z,99833.03
2019-03-29T14:33:25.725Z,99829.62
2019-03-29T14:35:33.517Z,99830.78
2019-03-29T14:37:41.210Z,99827.36
2019-03-29T14:39:48.901Z,99819.75
2019-03-29T14:41:56.648Z,99831.86
2019-03-29T14:44:05.515Z,99827.38
2019-03-29T14:46:13.200Z,99830.61
2019-03-29T14:48:21.018Z,99826.25
2019-03-29T14:50:28.846Z,99833.23
2019-03-29T14:52:36.699Z,99823.06
2019-03-29T14:54:44.411Z,99820.27
2019-03-29T14:56:52.297Z,99823.88
2019-03-29T14:59:00.116Z,99824.87
2019-03-29T15:01:07.861Z,99823.58
2019-03-29T15:03:15.979Z,99829.44
2019-03-29T15:05:23.690Z,99819.20
2019-03-29T15:07:31.369Z,99826.23
2019-03-29T15:09:39.067Z,99830.27
2019-03-29T15:11:46.760Z,99824.07
2019-03-29T15:13:54.453Z,99819.33
2019-03-29T15:16:02.211Z,99817.34
2019-03-29T15:18:10.088Z,99814.40
2019-03-29T15:20:17.794Z,99817.25
2019-03-29T15:22:25.486Z,99814.80
2019-03-29T15:24:33.238Z,99816.30
2019-03-29T15:26:40.956Z,99814.51
2019-03-29T15:28:48.692Z,99816.50
2019-03-29T15:30:56.383Z,99812.18
2019-03-29T15:33:04.168Z,99815.08
2019-03-29T15:35:12.165Z,99816.91
2019-03-29T15:37:19.855Z,99819.66
2019-03-29T15:39:27.714Z,99823.22
2019-03-29T15:41:35.659Z,99817.86
2019-03-29T15:43:43.602Z,99817.72
2019-03-29T15:45:51.551Z,99811.80
2019-03-29T15:47:59.341Z,99820.84
2019-03-29T15:50:08.243Z,99826.20
2019-03-29T15:52:15.994Z,99829.98
2019-03-29T15:54:23.582Z,99821.98
2019-03-29T15:56:31.367Z,99813.37
2019-03-29T15:58:40.232Z,99815.25
2019-03-29T16:00:47.986Z,99815.48
2019-03-29T16:02:55.761Z,99808.12
2019-03-29T16:05:03.740Z,99806.94
2019-03-29T16:07:12.429Z,99810.76
2019-03-29T16:09:20.213Z,99806.73
2019-03-29T16:11:28.138Z,99811.56
2019-03-29T16:13:35.727Z,99807.24
2019-03-29T16:15:43.504Z,99806.77
2019-03-29T16:17:51.223Z,99804.27
2019-03-29T16:19:58.985Z,99803.85
2019-03-29T16:22:06.666Z,99799.72
2019-03-29T16:24:14.487Z,99806.14
2019-03-29T16:26:22.176Z,99806.62
2019-03-29T16:28:29.751Z,99813.72
2019-03-29T16:30:37.551Z,99811.86
2019-03-29T16:32:45.502Z,99813.30
2019-03-29T16:34:53.190Z,99810.59
2019-03-29T16:37:00.883Z,99808.84
2019-03-29T16:39:09.325Z,99812.71
2019-03-29T16:41:17.010Z,99811.17
2019-03-29T16:43:24.732Z,99813.55
2019-03-29T16:45:46.838Z,99808.45
2019-03-29T16:47:42.650Z,99808.55
2019-03-29T16:49:50.343Z,99817.52
2019-03-29T16:51:58.017Z,99804.46
2019-03-29T16:54:06.022Z,99807.48
2019-03-29T16:56:13.743Z,99800.67
2019-03-29T16:58:21.414Z,99800.33
2019-03-29T17:00:28.991Z,99799.44
2019-03-29T17:02:36.800Z,99797.59
2019-03-29T17:04:44.375Z,99796.07
2019-03-29T17:06:52.144Z,99798.66
2019-03-29T17:08:59.841Z,99804.02
2019-03-29T17:11:07.413Z,99805.53
2019-03-29T17:13:15.086Z,99807.20
2019-03-29T17:15:22.794Z,99807.62
2019-03-29T17:17:30.463Z,99800.86
2019-03-29T17:19:38.143Z,99807.34
2019-03-29T17:21:46.010Z,99800.43
2019-03-29T17:23:53.779Z,99804.48
2019-03-29T17:26:01.423Z,99800.91
2019-03-29T17:28:10.206Z,99798.67
2019-03-29T17:30:22.592Z,99807.00
2019-03-29T17:32:30.260Z,99802.72
2019-03-29T17:34:38.049Z,99804.50
2019-03-29T17:36:45.626Z,99798.50
2019-03-29T17:38:53.303Z,99800.16
2019-03-29T17:41:02.801Z,99794.55
2019-03-29T17:43:10.695Z,99799.34
2019-03-29T17:45:18.435Z,99789.36
2019-03-29T17:47:26.204Z,99794.67
2019-03-29T17:49:33.876Z,99791.19
2019-03-29T17:51:41.616Z,99791.31
2019-03-29T17:53:49.436Z,99792.00
2019-03-29T17:55:57.470Z,99795.34
2019-03-29T17:58:05.528Z,99794.03
2019-03-29T18:00:15.405Z,99793.22
2019-03-29T18:02:23.512Z,99786.66
2019-03-29T18:04:31.160Z,99789.60
2019-03-29T18:06:38.921Z,99786.34
2019-03-29T18:08:46.661Z,99782.30
2019-03-29T18:10:55.271Z,99779.02
2019-03-29T18:13:02.999Z,99785.70
2019-03-29T18:15:11.799Z,99778.13
2019-03-29T18:17:19.441Z,99778.04
2019-03-29T18:19:27.229Z,99779.87
2019-03-29T18:21:34.899Z,99781.39
2019-03-29T18:23:45.630Z,99782.00
2019-03-29T18:25:54.594Z,99781.02
2019-03-29T18:28:02.384Z,99777.41
2019-03-29T18:30:12.241Z,99773.70
2019-03-29T18:32:20.906Z,99768.00
2019-03-29T18:34:28.653Z,99771.96
2019-03-29T18:36:36.899Z,99769.66
2019-03-29T18:38:47.310Z,99775.41
2019-03-29T18:40:55.145Z,99771.17
2019-03-29T18:43:03.178Z,99773.84
2019-03-29T18:45:12.831Z,99770.06
2019-03-29T18:47:20.472Z,99771.88
2019-03-29T18:49:28.124Z,99770.53
2019-03-29T18:51:35.888Z,99764.50
2019-03-29T18:53:43.564Z,99761.28
2019-03-29T18:55:51.342Z,99760.98
2019-03-29T18:57:59.135Z,99758.98
2019-03-29T19:00:08.725Z,99758.83
2019-03-29T19:02:16.377Z,99758.80
2019-03-29T19:04:24.145Z,99756.74
2019-03-29T19:06:32.170Z,99758.28
2019-03-29T19:08:39.847Z,99748.52
2019-03-29T19:10:47.555Z,99749.52
2019-03-29T19:12:55.617Z,99758.56
2019-03-29T19:15:03.830Z,99755.51
2019-03-29T19:17:11.561Z,99749.36
2019-03-29T19:19:19.422Z,99751.52
2019-03-29T19:21:27.253Z,99752.57
2019-03-29T19:23:35.007Z,99749.94
2019-03-29T19:25:42.820Z,99747.53
2019-03-29T19:27:50.495Z,99749.34
2019-03-29T19:29:58.209Z,99748.45
2019-03-29T19:32:05.986Z,99748.53
2019-03-29T19:34:13.732Z,99748.03
2019-03-29T19:36:21.425Z,99743.91
2019-03-29T19:38:29.313Z,99741.41
2019-03-29T19:40:37.004Z,99742.91
2019-03-29T19:42:44.764Z,99747.86
2019-03-29T19:44:52.539Z,99740.13
2019-03-29T19:47:12.825Z,99744.08
2019-03-29T19:49:09.690Z,99740.17
2019-03-29T19:51:18.437Z,99747.02
2019-03-29T19:53:26.248Z,99738.94
2019-03-29T19:55:34.070Z,99739.55
2019-03-29T19:57:41.801Z,99735.57
2019-03-29T19:59:49.475Z,99734.76
2019-03-29T20:01:57.266Z,99742.09
2019-03-29T20:04:09.456Z,99736.88
2019-03-29T20:06:14.690Z,99739.15
2019-03-29T20:08:22.383Z,99735.97
2019-03-29T20:10:30.132Z,99731.12
2019-03-29T20:12:37.940Z,99740.50
2019-03-29T20:14:46.594Z,99741.45
2019-03-29T20:16:55.397Z,99738.77
2019-03-29T20:19:03.130Z,99741.67
2019-03-29T20:21:10.842Z,99740.89
2019-03-29T20:23:18.587Z,99736.39
2019-03-29T20:25:26.772Z,99738.88
2019-03-29T20:27:35.607Z,99744.39
2019-03-29T20:29:43.304Z,99745.23
2019-03-29T20:31:51.008Z,99743.61
2019-03-29T20:34:00.751Z,99744.49
2019-03-29T20:36:08.242Z,99745.80
2019-03-29T20:38:15.940Z,99745.48
2019-03-29T20:40:23.839Z,99747.70
2019-03-29T20:42:32.721Z,99744.50
2019-03-29T20:44:40.321Z,99742.02
2019-03-29T20:46:49.239Z,99747.56
2019-03-29T20:48:57.003Z,99744.06
2019-03-29T20:51:04.764Z,99743.70
2019-03-29T20:53:12.505Z,99739.88
2019-03-29T20:55:20.197Z,99739.70
2019-03-29T20:57:27.878Z,99744.67
2019-03-29T20:59:36.795Z,99737.40
2019-03-29T21:01:44.474Z,99744.03
2019-03-29T21:03:52.153Z,99746.91
2019-03-29T21:06:01.057Z,99737.97
2019-03-29T21:10:15.713Z,99742.93
2019-03-29T21:12:23.327Z,99737.45
2019-03-29T21:14:31.015Z,99741.23
2019-03-29T21:16:40.673Z,99738.75
2019-03-29T21:18:48.401Z,99728.64
2019-03-29T21:20:57.355Z,99731.73
2019-03-29T21:23:05.220Z,99736.19
2019-03-29T21:25:13.191Z,99739.79
2019-03-29T21:27:20.963Z,99737.53
2019-03-29T21:29:29.638Z,99743.13
2019-03-29T21:31:37.450Z,99741.88
2019-03-29T21:33:45.312Z,99742.36
2019-03-29T21:35:52.997Z,99738.16
2019-03-29T21:38:00.725Z,99736.97
2019-03-29T21:40:09.822Z,99735.72
2019-03-29T21:42:20.498Z,99736.20
2019-03-29T21:44:28.315Z,99735.38
2019-03-29T21:46:36.071Z,99734.50
2019-03-29T21:48:43.766Z,99733.63
2019-03-29T21:50:51.487Z,99739.02
2019-03-29T21:52:59.172Z,99733.04
2019-03-29T21:55:07.757Z,99730.87
2019-03-29T21:57:15.487Z,99730.42
2019-03-29T21:59:25.122Z,99726.97
2019-03-29T22:01:32.985Z,99726.88
2019-03-29T22:03:40.596Z,99727.19
2019-03-29T22:05:48.352Z,99723.49
2019-03-29T22:07:56.022Z,99730.19
2019-03-29T22:10:06.798Z,99725.77
2019-03-29T22:12:17.115Z,99724.41
2019-03-29T22:14:24.871Z,99721.71
2019-03-29T22:16:32.681Z,99715.68
2019-03-29T22:18:41.568Z,99721.95
2019-03-29T22:20:49.240Z,99712.52
2019-03-29T22:22:58.174Z,99714.97
2019-03-29T22:25:09.734Z,99717.91
2019-03-29T22:27:17.410Z,99709.25
2019-03-29T22:29:25.268Z,99702.83
2019-03-29T22:31:32.946Z,99700.99
2019-03-29T22:33:41.811Z,99702.83
2019-03-29T22:35:49.406Z,99698.23
2019-03-29T22:37:57.148Z,99704.53
2019-03-29T22:40:08.020Z,99696.20
2019-03-29T22:42:15.719Z,99694.55
2019-03-29T22:44:23.388Z,99696.73
2019-03-29T22:46:31.133Z,99697.09
2019-03-29T22:48:51.576Z,99693.77
2019-03-29T22:50:49.839Z,99688.72
2019-03-29T22:52:57.515Z,99684.16
2019-03-29T22:55:09.478Z,99680.83
2019-03-29T22:57:17.231Z,99683.77
2019-03-29T22:59:24.895Z,99685.34
2019-03-29T23:01:37.224Z,99672.63
2019-03-29T23:03:45.035Z,99670.77
2019-03-29T23:05:52.784Z,99672.92
2019-03-29T23:08:00.510Z,99675.27
2019-03-29T23:10:09.711Z,99666.72
2019-03-29T23:12:17.453Z,99661.80
2019-03-29T23:14:25.231Z,99660.58
2019-03-29T23:16:32.897Z,99651.91
2019-03-29T23:18:40.570Z,99653.38
2019-03-29T23:20:48.594Z,99654.00
2019-03-29T23:22:56.400Z,99657.81
2019-03-29T23:25:05.281Z,99654.71
2019-03-29T23:27:13.943Z,99648.29
2019-03-29T23:29:21.613Z,99649.04
2019-03-29T23:31:29.254Z,99654.78
2019-03-29T23:33:37.054Z,99654.00
2019-03-29T23:35:44.796Z,99653.58
2019-03-29T23:37:53.643Z,99651.84
2019-03-29T23:40:01.394Z,99657.30
2019-03-29T23:42:09.330Z,99651.65
2019-03-29T23:44:17.081Z,99655.40
2019-03-29T23:46:25.744Z,99657.06
2019-03-29T23:48:33.489Z,99655.86
2019-03-29T23:50:41.159Z,99655.40
2019-03-29T23:52:48.913Z,99656.55
2019-03-29T23:54:56.880Z,99656.31
2019-03-29T23:57:04.576Z,99659.10
2019-03-29T23:59:12.350Z,99658.20
